Time;durP1;ratioP1;P1;durP2;ratioP2;P2;SDS_P1;SDS_P2;PMS_P1;PMS_P2;Temp;Humidity;BMP_temperature;BMP_pressure;BME280_temperature;BME280_humidity;BME280_pressure;Samples;Min_cycle;Max_cycle;Signal;HPM_P1;HPM_P2
2022/01/03 00:00:51;;;;;;;3.57;1.70;;;18.60;64.00;;;;;;5114407;28;20526;-77
2022/01/03 00:03:19;;;;;;;1.40;1.30;;;18.60;64.00;;;;;;5113642;28;20506;-77
2022/01/03 00:05:48;;;;;;;2.50;1.60;;;18.60;64.00;;;;;;5112763;28;20827;-76
2022/01/03 00:08:16;;;;;;;3.10;1.57;;;18.60;64.00;;;;;;5112797;28;20428;-78
2022/01/03 00:10:46;;;;;;;2.13;1.23;;;18.60;64.00;;;;;;5115294;28;20467;-78
2022/01/03 00:13:13;;;;;;;1.43;1.30;;;18.60;64.00;;;;;;5112697;28;20502;-78
2022/01/03 00:15:41;;;;;;;6.63;1.47;;;18.50;64.00;;;;;;5112548;28;20456;-78
2022/01/03 00:18:09;;;;;;;1.47;1.27;;;18.50;64.00;;;;;;5112340;28;20474;-77
2022/01/03 00:20:38;;;;;;;1.00;1.00;;;18.50;64.70;;;;;;5112393;28;20478;-78
2022/01/03 00:23:07;;;;;;;2.30;1.30;;;18.50;64.00;;;;;;5112139;28;20440;-78
2022/01/03 00:25:37;;;;;;;1.97;1.50;;;18.40;63.90;;;;;;5112741;28;20539;-78
2022/01/03 00:28:11;;;;;;;2.40;1.27;;;18.40;64.10;;;;;;5112438;28;20528;-77
2022/01/03 00:30:39;;;;;;;1.90;1.47;;;18.40;64.00;;;;;;5111511;28;20479;-77
2022/01/03 00:33:08;;;;;;;2.70;1.37;;;18.30;64.10;;;;;;5112885;28;20471;-75
2022/01/03 00:35:37;;;;;;;1.90;1.57;;;18.40;64.30;;;;;;5112116;27;20555;-76
2022/01/03 00:38:06;;;;;;;1.30;1.20;;;18.40;64.30;;;;;;5112456;28;20527;-76
2022/01/03 00:40:34;;;;;;;2.43;1.20;;;18.40;64.30;;;;;;5111823;28;20822;-76
2022/01/03 00:43:02;;;;;;;1.67;1.40;;;18.30;64.30;;;;;;5112538;28;20500;-76
2022/01/03 00:45:31;;;;;;;1.57;1.33;;;18.30;64.50;;;;;;5111342;28;20487;-76
2022/01/03 00:47:59;;;;;;;1.90;1.23;;;18.30;64.50;;;;;;5111286;28;20454;-76
2022/01/03 00:50:29;;;;;;;2.80;1.40;;;18.20;64.40;;;;;;5111902;28;20539;-76
2022/01/03 00:52:57;;;;;;;1.87;1.20;;;18.20;64.50;;;;;;5111992;28;20539;-76
2022/01/03 00:55:25;;;;;;;2.10;1.30;;;18.20;64.60;;;;;;5113777;28;20546;-77
2022/01/03 00:57:59;;;;;;;1.20;1.07;;;18.20;65.40;;;;;;5113573;28;20463;-76
2022/01/03 01:00:29;;;;;;;3.00;1.33;;;18.20;64.60;;;;;;5112106;28;20554;-77
2022/01/03 01:03:05;;;;;;;1.20;1.10;;;18.20;64.80;;;;;;5110981;28;20462;-77
2022/01/03 01:05:33;;;;;;;1.50;1.27;;;18.20;64.60;;;;;;5111388;28;20463;-77
2022/01/03 01:08:01;;;;;;;1.37;1.27;;;18.20;64.60;;;;;;5112101;28;20464;-77
2022/01/03 01:10:31;;;;;;;3.73;1.50;;;18.20;64.60;;;;;;5112060;28;20442;-77
2022/01/03 01:12:59;;;;;;;2.60;1.20;;;18.20;64.70;;;;;;5111957;28;20466;-77
2022/01/03 01:15:31;;;;;;;1.57;1.10;;;18.20;64.80;;;;;;5111178;28;20513;-77
2022/01/03 01:18:04;;;;;;;3.43;1.13;;;18.20;64.70;;;;;;5111279;28;20448;-77
2022/01/03 01:20:32;;;;;;;1.83;1.30;;;18.10;64.70;;;;;;5111884;28;20559;-77
2022/01/03 01:23:00;;;;;;;1.33;1.23;;;18.20;64.80;;;;;;5111855;28;20534;-77
2022/01/03 01:28:11;;;;;;;3.00;1.10;;;18.20;64.70;;;;;;5111155;28;20534;-77
2022/01/03 01:30:39;;;;;;;1.70;1.20;;;18.10;64.70;;;;;;5112247;28;20460;-77
2022/01/03 01:33:09;;;;;;;1.30;1.00;;;18.10;64.60;;;;;;5111005;28;20447;-77
2022/01/03 01:35:39;;;;;;;2.47;1.37;;;18.10;64.60;;;;;;5110883;28;20491;-77
2022/01/03 01:38:07;;;;;;;1.97;1.20;;;18.20;64.80;;;;;;5109872;28;20490;-77
2022/01/03 01:40:35;;;;;;;1.00;1.00;;;18.10;64.50;;;;;;5110635;28;20535;-77
2022/01/03 01:43:03;;;;;;;3.90;1.40;;;18.10;64.60;;;;;;5112507;28;20474;-77
2022/01/03 01:45:30;;;;;;;2.40;1.30;;;18.10;64.60;;;;;;5101217;28;20535;-77
2022/01/03 01:47:59;;;;;;;3.00;1.30;;;18.10;64.70;;;;;;5100692;28;20619;-77
2022/01/03 01:50:29;;;;;;;1.23;1.13;;;18.10;64.70;;;;;;5102233;28;20827;-77
2022/01/03 01:52:57;;;;;;;2.60;1.20;;;18.10;64.60;;;;;;5102390;28;20428;-77
2022/01/03 01:55:25;;;;;;;1.73;1.00;;;18.10;64.80;;;;;;5101933;28;20531;-77
2022/01/03 01:57:58;;;;;;;1.30;1.20;;;18.10;64.70;;;;;;5101662;28;20512;-77
2022/01/03 02:00:26;;;;;;;3.33;1.40;;;18.10;65.00;;;;;;5103559;28;20508;-77
2022/01/03 02:03:06;;;;;;;1.30;1.13;;;18.10;64.80;;;;;;5105226;28;21002;-77
2022/01/03 02:05:38;;;;;;;1.93;1.20;;;18.10;64.70;;;;;;5108045;28;20477;-77
2022/01/03 02:08:12;;;;;;;2.17;1.10;;;18.10;64.70;;;;;;5108798;28;20504;-77
2022/01/03 02:10:42;;;;;;;1.30;1.20;;;18.10;64.60;;;;;;5105265;28;20460;-77
2022/01/03 02:13:10;;;;;;;1.33;1.23;;;18.10;64.60;;;;;;5102703;28;20427;-77
2022/01/03 02:15:39;;;;;;;1.87;1.70;;;18.10;64.70;;;;;;5094782;28;20467;-77
2022/01/03 02:18:06;;;;;;;4.43;1.50;;;18.10;64.70;;;;;;5094839;28;20447;-77
2022/01/03 02:20:36;;;;;;;1.63;1.00;;;18.10;64.70;;;;;;5094658;28;20486;-77
2022/01/03 02:23:04;;;;;;;2.23;1.40;;;18.10;64.70;;;;;;5111498;28;20486;-77
2022/01/03 02:25:32;;;;;;;1.77;1.20;;;18.10;64.60;;;;;;5114751;28;20466;-77
2022/01/03 02:28:00;;;;;;;1.53;1.40;;;18.10;64.70;;;;;;5115245;28;20455;-77
2022/01/03 02:30:29;;;;;;;3.27;1.50;;;18.10;64.60;;;;;;5114501;28;20455;-77
2022/01/03 02:32:57;;;;;;;3.70;1.20;;;18.20;64.50;;;;;;5113688;28;20546;-77
2022/01/03 02:35:25;;;;;;;1.43;1.20;;;18.20;64.60;;;;;;5114656;28;20656;-77
2022/01/03 02:37:55;;;;;;;1.37;1.10;;;18.10;64.40;;;;;;5114716;28;20482;-77
2022/01/03 02:40:22;;;;;;;4.17;1.60;;;18.20;64.40;;;;;;5114545;28;20554;-77
2022/01/03 02:42:50;;;;;;;3.40;1.40;;;18.20;64.30;;;;;;5114886;28;20467;-77
2022/01/03 02:45:19;;;;;;;1.90;1.10;;;18.20;64.30;;;;;;5114617;28;20483;-77
2022/01/03 02:47:49;;;;;;;2.70;1.47;;;18.20;64.40;;;;;;5114416;28;20481;-77
2022/01/03 02:50:17;;;;;;;2.47;1.30;;;18.20;64.30;;;;;;5113071;28;20530;-77
2022/01/03 02:52:45;;;;;;;1.30;1.20;;;18.20;64.30;;;;;;5114277;28;20527;-77
2022/01/03 02:55:15;;;;;;;1.67;1.17;;;18.20;64.30;;;;;;5113949;28;20557;-77
2022/01/03 02:57:44;;;;;;;3.43;1.40;;;18.20;64.30;;;;;;5114650;28;20461;-77
2022/01/03 03:00:14;;;;;;;2.50;1.40;;;18.20;64.30;;;;;;5110363;28;20507;-77
2022/01/03 03:02:43;;;;;;;1.70;1.40;;;18.20;64.30;;;;;;5114471;28;20470;-77
2022/01/03 03:05:11;;;;;;;2.70;1.50;;;18.20;64.40;;;;;;5114031;28;20462;-77
2022/01/03 03:07:38;;;;;;;1.73;1.40;;;18.20;64.40;;;;;;5112943;28;20457;-77
2022/01/03 03:10:08;;;;;;;2.07;1.23;;;18.20;64.90;;;;;;5109477;28;20533;-77
2022/01/03 03:12:38;;;;;;;2.93;1.40;;;18.20;64.10;;;;;;5114034;28;20474;-77
2022/01/03 03:15:06;;;;;;;4.27;1.57;;;18.20;64.10;;;;;;5113423;28;20555;-77
2022/01/03 03:17:34;;;;;;;2.07;1.40;;;18.20;64.10;;;;;;5113748;28;20470;-77
2022/01/03 03:20:04;;;;;;;3.00;1.40;;;18.20;64.10;;;;;;5113691;28;20498;-77
2022/01/03 03:22:32;;;;;;;2.30;1.83;;;18.20;64.00;;;;;;5112610;28;20562;-77
2022/01/03 03:25:00;;;;;;;3.87;1.80;;;18.20;64.00;;;;;;5113663;28;20475;-77
2022/01/03 03:27:28;;;;;;;3.20;1.57;;;18.20;64.00;;;;;;5113881;28;20547;-77
2022/01/03 03:30:15;;;;;;;3.80;1.60;;;18.20;64.10;;;;;;5113553;28;20518;-77
2022/01/03 03:32:43;;;;;;;3.00;1.80;;;18.20;64.80;;;;;;5113658;28;20455;-77
2022/01/03 03:35:11;;;;;;;3.80;1.60;;;18.20;64.10;;;;;;5113764;28;20542;-77
2022/01/03 03:37:39;;;;;;;3.80;1.60;;;18.20;63.90;;;;;;5113791;28;20451;-77
2022/01/03 03:40:07;;;;;;;7.50;1.83;;;18.20;64.00;;;;;;5112349;28;20573;-77
2022/01/03 03:42:35;;;;;;;3.87;1.77;;;18.20;63.90;;;;;;5113486;28;20444;-76
2022/01/03 03:45:03;;;;;;;5.87;1.97;;;18.20;64.00;;;;;;5113254;28;20487;-77
2022/01/03 03:47:33;;;;;;;5.13;1.70;;;18.30;64.10;;;;;;5113063;28;20432;-77
2022/01/03 03:50:01;;;;;;;3.83;1.80;;;18.20;63.80;;;;;;5113517;28;20442;-77
2022/01/03 03:52:29;;;;;;;4.17;1.50;;;18.20;63.80;;;;;;5113161;28;20478;-77
2022/01/03 03:54:56;;;;;;;3.20;1.77;;;18.20;63.80;;;;;;5111966;28;20467;-77
2022/01/03 03:57:25;;;;;;;8.07;1.93;;;18.20;63.80;;;;;;5112964;28;20428;-77
2022/01/03 03:59:52;;;;;;;6.00;1.70;;;18.20;63.80;;;;;;5112631;28;20464;-76
2022/01/03 04:02:21;;;;;;;6.07;1.83;;;18.20;63.90;;;;;;5112985;28;20436;-77
2022/01/03 04:04:50;;;;;;;4.93;1.73;;;18.20;63.80;;;;;;5112752;28;20475;-77
2022/01/03 04:07:18;;;;;;;6.93;2.10;;;18.20;63.70;;;;;;5112986;28;20522;-77
2022/01/03 04:09:46;;;;;;;5.53;1.80;;;18.20;63.80;;;;;;5112653;28;20440;-77
2022/01/03 04:12:14;;;;;;;6.50;2.30;;;18.20;63.90;;;;;;5111426;28;20888;-77
2022/01/03 04:14:42;;;;;;;5.63;2.10;;;18.20;63.80;;;;;;5112368;28;20479;-76
2022/01/03 04:17:12;;;;;;;4.50;1.63;;;18.20;63.90;;;;;;5112460;28;20511;-77
2022/01/03 04:19:39;;;;;;;3.67;1.73;;;18.20;63.80;;;;;;5112495;28;20534;-77
2022/01/03 04:22:09;;;;;;;2.73;1.63;;;18.20;63.80;;;;;;5112161;28;20540;-77
2022/01/03 04:24:37;;;;;;;4.20;1.57;;;18.20;63.80;;;;;;5112862;28;20534;-77
2022/01/03 04:27:05;;;;;;;5.93;1.90;;;18.20;63.70;;;;;;5112358;28;20482;-77
2022/01/03 04:29:33;;;;;;;9.17;2.00;;;18.20;63.70;;;;;;5112540;28;20527;-77
2022/01/03 04:32:01;;;;;;;5.63;2.03;;;18.10;63.90;;;;;;5112291;28;20478;-76
2022/01/03 04:34:29;;;;;;;5.43;1.73;;;18.20;63.90;;;;;;5112343;28;20550;-77
2022/01/03 04:36:57;;;;;;;3.87;2.10;;;18.20;63.90;;;;;;5112284;28;20444;-77
2022/01/03 04:39:26;;;;;;;6.57;2.37;;;18.20;63.90;;;;;;5112245;28;20523;-77
2022/01/03 04:41:54;;;;;;;6.83;2.10;;;18.20;63.90;;;;;;5112297;28;20554;-77
2022/01/03 04:44:22;;;;;;;7.97;2.10;;;18.10;63.70;;;;;;5111478;28;20559;-77
2022/01/03 04:46:51;;;;;;;5.80;1.73;;;18.10;63.70;;;;;;5112075;28;20528;-77
2022/01/03 04:49:19;;;;;;;6.80;2.13;;;18.20;63.70;;;;;;5112142;28;20869;-77
2022/01/03 04:51:47;;;;;;;7.67;1.83;;;18.20;63.90;;;;;;5112034;28;20463;-77
2022/01/03 04:54:15;;;;;;;5.47;2.10;;;18.20;63.70;;;;;;5111862;28;20456;-77
2022/01/03 04:56:44;;;;;;;8.30;1.90;;;18.20;63.70;;;;;;5112154;28;20511;-77
2022/01/03 04:59:12;;;;;;;6.47;2.10;;;18.10;63.60;;;;;;5111339;28;20526;-77
2022/01/03 05:01:40;;;;;;;2.47;2.00;;;18.20;63.70;;;;;;5107981;28;20463;-77
2022/01/03 05:04:08;;;;;;;5.70;1.93;;;18.20;63.70;;;;;;5091530;28;20448;-77
2022/01/03 05:06:36;;;;;;;4.47;1.63;;;18.20;63.60;;;;;;5091583;28;20516;-77
2022/01/03 05:09:04;;;;;;;7.33;1.97;;;18.20;63.60;;;;;;5091572;28;20462;-77
2022/01/03 05:11:32;;;;;;;8.53;1.83;;;18.20;63.60;;;;;;5091683;28;20444;-77
2022/01/03 05:14:02;;;;;;;8.57;2.10;;;18.20;63.60;;;;;;5091343;28;20531;-77
2022/01/03 05:16:30;;;;;;;5.03;2.03;;;18.20;63.60;;;;;;5103715;28;20543;-77
2022/01/03 05:18:58;;;;;;;6.27;2.00;;;18.20;63.60;;;;;;5111673;28;20443;-76
2022/01/03 05:21:26;;;;;;;6.33;2.10;;;18.20;63.60;;;;;;5111830;28;20513;-77
2022/01/03 05:23:54;;;;;;;6.10;2.23;;;18.20;63.60;;;;;;5111720;28;20462;-77
2022/01/03 05:26:22;;;;;;;8.37;2.30;;;18.20;63.60;;;;;;5111563;28;20879;-77
2022/01/03 05:28:49;;;;;;;5.90;1.90;;;18.20;63.70;;;;;;5111473;28;20514;-77
2022/01/03 05:31:20;;;;;;;3.10;1.97;;;18.20;63.50;;;;;;5111658;28;20519;-77
2022/01/03 05:33:48;;;;;;;8.60;2.37;;;18.20;63.60;;;;;;5112952;28;20444;-77
2022/01/03 05:36:16;;;;;;;5.37;1.83;;;18.20;63.60;;;;;;5115953;28;20501;-77
2022/01/03 05:38:44;;;;;;;4.50;1.93;;;18.20;63.50;;;;;;5115874;28;20432;-77
2022/01/03 05:41:12;;;;;;;9.17;2.23;;;18.20;63.60;;;;;;5115976;28;21048;-77
2022/01/03 05:43:40;;;;;;;4.53;1.97;;;18.20;63.50;;;;;;5115603;28;20528;-77
2022/01/03 05:46:08;;;;;;;5.57;2.00;;;18.20;63.50;;;;;;5114609;28;20458;-77
2022/01/03 05:48:37;;;;;;;7.27;1.83;;;18.20;63.40;;;;;;5114120;28;20436;-77
2022/01/03 05:51:05;;;;;;;4.93;2.30;;;18.20;63.40;;;;;;5114629;28;20547;-77
2022/01/03 05:53:33;;;;;;;7.53;1.97;;;18.20;63.50;;;;;;5115202;28;20523;-77
2022/01/03 05:56:01;;;;;;;8.97;2.33;;;18.20;63.50;;;;;;5115284;28;20462;-77
2022/01/03 05:58:29;;;;;;;4.40;2.03;;;18.20;63.40;;;;;;5115027;28;20530;-77
2022/01/03 06:00:58;;;;;;;6.83;2.13;;;18.20;63.40;;;;;;5115184;28;20797;-77
2022/01/03 06:03:29;;;;;;;9.17;2.50;;;18.20;63.50;;;;;;5115598;28;20514;-77
2022/01/03 06:06:17;;;;;;;9.10;2.30;;;18.20;63.40;;;;;;5114240;28;20479;-77
2022/01/03 06:08:46;;;;;;;4.87;2.07;;;18.20;63.60;;;;;;5115110;28;20523;-77
2022/01/03 06:11:14;;;;;;;7.23;2.60;;;18.20;63.40;;;;;;5114983;28;20463;-77
2022/01/03 06:13:42;;;;;;;9.20;2.20;;;18.20;63.30;;;;;;5115315;28;20444;-77
2022/01/03 06:16:09;;;;;;;5.03;1.97;;;18.20;63.40;;;;;;5115129;28;20485;-77
2022/01/03 06:18:38;;;;;;;6.47;2.23;;;18.20;63.40;;;;;;5115330;28;20448;-77
2022/01/03 06:21:08;;;;;;;9.30;2.10;;;18.20;63.30;;;;;;5114987;28;20467;-77
2022/01/03 06:23:35;;;;;;;6.50;2.23;;;18.20;63.30;;;;;;5114470;28;20443;-77
2022/01/03 06:26:04;;;;;;;5.63;2.00;;;18.20;63.40;;;;;;5114779;28;20448;-77
2022/01/03 06:28:31;;;;;;;7.37;2.17;;;18.20;63.40;;;;;;5114959;28;20463;-77
2022/01/03 06:30:59;;;;;;;14.17;2.40;;;18.20;63.40;;;;;;5114637;28;20511;-77
2022/01/03 06:33:27;;;;;;;8.83;2.33;;;18.20;63.40;;;;;;5114984;28;20496;-77
2022/01/03 06:35:55;;;;;;;8.57;2.17;;;18.20;63.30;;;;;;5114544;28;20985;-77
2022/01/03 06:38:25;;;;;;;5.63;2.20;;;18.20;63.30;;;;;;5114647;28;20472;-77
2022/01/03 06:40:53;;;;;;;9.47;2.03;;;18.20;63.20;;;;;;5114567;28;20435;-77
2022/01/03 06:43:21;;;;;;;6.27;2.60;;;18.10;63.90;;;;;;5112917;28;20476;-77
2022/01/03 06:45:49;;;;;;;5.70;2.53;;;18.10;63.20;;;;;;5114365;28;20480;-77
2022/01/03 06:48:17;;;;;;;8.60;2.60;;;18.10;63.30;;;;;;5114733;28;20444;-77
2022/01/03 06:50:45;;;;;;;5.40;2.10;;;18.10;63.40;;;;;;5114339;28;20499;-77
2022/01/03 06:53:13;;;;;;;6.03;2.63;;;18.10;63.40;;;;;;5114426;28;20871;-77
2022/01/03 06:55:42;;;;;;;5.13;2.13;;;18.20;63.40;;;;;;5114533;28;20484;-77
2022/01/03 06:58:10;;;;;;;7.40;2.90;;;18.10;63.30;;;;;;5114273;28;20474;-77
2022/01/03 07:00:37;;;;;;;6.70;2.20;;;18.10;63.40;;;;;;5113317;28;20530;-77
2022/01/03 07:03:06;;;;;;;5.83;2.30;;;18.10;63.30;;;;;;5113778;28;20463;-77
2022/01/03 07:05:35;;;;;;;6.17;2.40;;;18.20;63.50;;;;;;5113980;28;20479;-77
2022/01/03 07:08:08;;;;;;;6.60;2.60;;;18.10;63.40;;;;;;5114083;28;20465;-77
2022/01/03 07:10:36;;;;;;;9.87;2.20;;;18.10;63.30;;;;;;5114131;28;20474;-77
2022/01/03 07:13:05;;;;;;;7.10;1.97;;;18.10;63.20;;;;;;5113621;28;20519;-77
2022/01/03 07:21:04;;;;;;;9.70;2.70;;;18.20;63.50;;;;;;5114010;28;20428;-76
2022/01/03 07:23:32;;;;;;;8.90;2.43;;;18.10;63.30;;;;;;5113759;28;20925;-77
2022/01/03 07:26:00;;;;;;;7.53;2.50;;;18.10;63.30;;;;;;5113546;28;20479;-77
2022/01/03 07:28:30;;;;;;;6.53;2.03;;;18.10;63.30;;;;;;5113565;28;20875;-77
2022/01/03 07:30:57;;;;;;;9.27;2.63;;;18.10;63.30;;;;;;5113383;28;20432;-76
2022/01/03 07:33:26;;;;;;;10.47;2.20;;;18.20;63.30;;;;;;5112619;28;20458;-77
2022/01/03 07:35:54;;;;;;;11.00;2.33;;;18.20;63.90;;;;;;5113344;28;20531;-77
2022/01/03 07:38:23;;;;;;;5.53;2.03;;;18.10;63.20;;;;;;5113435;28;20436;-77
2022/01/03 07:40:51;;;;;;;15.63;3.00;;;18.10;63.30;;;;;;5113437;28;20482;-76
2022/01/03 07:43:19;;;;;;;9.10;2.27;;;18.10;63.40;;;;;;5113613;28;20510;-77
2022/01/03 07:45:48;;;;;;;5.13;1.90;;;18.10;63.30;;;;;;5113714;28;20455;-77
2022/01/03 07:48:16;;;;;;;6.50;2.13;;;18.20;63.30;;;;;;5112552;28;20458;-76
2022/01/03 07:50:44;;;;;;;7.00;1.90;;;18.20;63.30;;;;;;5113166;28;20455;-77
2022/01/03 07:53:12;;;;;;;5.43;1.93;;;18.20;63.20;;;;;;5113194;28;20527;-76
2022/01/03 07:55:40;;;;;;;6.87;2.43;;;18.20;63.20;;;;;;5112335;28;20573;-77
2022/01/03 07:58:08;;;;;;;5.53;2.47;;;18.20;63.30;;;;;;5113211;28;20538;-77
2022/01/03 08:00:36;;;;;;;6.07;2.30;;;18.20;63.30;;;;;;5113208;28;20503;-77
2022/01/03 08:03:05;;;;;;;10.60;2.70;;;18.10;63.00;;;;;;5113443;28;20464;-77
2022/01/03 08:05:35;;;;;;;13.00;2.70;;;18.20;63.20;;;;;;5112534;28;20456;-77
2022/01/03 08:08:03;;;;;;;7.47;2.70;;;18.20;63.10;;;;;;5113191;28;20464;-77
2022/01/03 08:10:31;;;;;;;5.50;2.33;;;18.10;63.00;;;;;;5113013;28;20489;-77
2022/01/03 08:12:59;;;;;;;5.73;2.40;;;18.20;63.10;;;;;;5112562;28;20531;-77
2022/01/03 08:15:29;;;;;;;6.00;2.13;;;18.20;62.90;;;;;;5112743;28;20480;-77
2022/01/03 08:17:56;;;;;;;6.73;2.23;;;18.10;62.90;;;;;;5113273;28;20526;-77
2022/01/03 08:20:26;;;;;;;8.37;2.27;;;18.20;63.10;;;;;;5112877;28;20530;-77
2022/01/03 08:22:54;;;;;;;8.27;2.60;;;18.20;62.90;;;;;;5111453;28;20471;-77
2022/01/03 08:25:22;;;;;;;11.97;2.97;;;18.20;62.80;;;;;;5112448;28;20850;-77
2022/01/03 08:27:49;;;;;;;5.37;2.10;;;18.20;62.90;;;;;;5112675;28;20479;-77
2022/01/03 08:30:17;;;;;;;6.63;2.20;;;18.20;62.90;;;;;;5113191;28;21005;-77
2022/01/03 08:32:45;;;;;;;8.83;2.87;;;18.20;62.90;;;;;;5112383;28;20531;-77
2022/01/03 08:35:13;;;;;;;8.33;2.23;;;18.20;62.90;;;;;;5112722;28;20498;-76
2022/01/03 08:37:47;;;;;;;11.87;3.20;;;18.20;62.80;;;;;;5111695;28;20448;-76
2022/01/03 08:40:16;;;;;;;10.63;2.67;;;18.20;62.70;;;;;;5112622;28;20527;-77
2022/01/03 08:42:44;;;;;;;11.03;3.13;;;18.20;62.70;;;;;;5112426;28;20474;-77
2022/01/03 08:45:12;;;;;;;12.83;2.60;;;18.20;62.80;;;;;;5112332;28;20501;-77
2022/01/03 08:47:40;;;;;;;7.80;2.60;;;18.20;62.70;;;;;;5112661;28;20424;-77
2022/01/03 08:50:09;;;;;;;9.57;2.97;;;18.30;62.70;;;;;;5112583;28;20982;-76
2022/01/03 08:52:37;;;;;;;10.23;2.67;;;18.30;62.70;;;;;;5112520;28;20467;-76
2022/01/03 08:55:07;;;;;;;7.40;2.30;;;18.30;62.60;;;;;;5111569;28;20564;-77
2022/01/03 08:57:35;;;;;;;11.77;2.60;;;18.30;62.50;;;;;;5112250;28;20475;-77
2022/01/03 09:00:04;;;;;;;7.43;2.27;;;18.30;62.50;;;;;;5112093;28;20515;-77
2022/01/03 09:02:32;;;;;;;9.53;2.80;;;18.30;62.50;;;;;;5112937;28;20459;-77
2022/01/03 09:04:59;;;;;;;9.37;2.87;;;18.30;62.50;;;;;;5113011;28;20559;-76
2022/01/03 09:07:27;;;;;;;11.93;3.27;;;18.30;62.50;;;;;;5114753;28;20871;-77
2022/01/03 09:09:55;;;;;;;8.33;2.40;;;18.30;62.50;;;;;;5116320;28;20486;-76
2022/01/03 09:12:24;;;;;;;11.63;3.00;;;18.40;62.40;;;;;;5115319;28;20487;-76
2022/01/03 09:14:53;;;;;;;10.63;2.50;;;18.40;62.50;;;;;;5116320;28;20483;-77
2022/01/03 09:17:21;;;;;;;10.90;2.53;;;18.40;62.50;;;;;;5116563;28;20442;-76
2022/01/03 09:19:49;;;;;;;9.73;2.50;;;18.40;62.30;;;;;;5116285;28;20446;-77
2022/01/03 09:22:22;;;;;;;7.37;2.20;;;18.40;62.30;;;;;;5116351;28;20442;-76
2022/01/03 09:28:48;;;;;;;7.53;2.50;;;18.50;62.40;;;;;;5115859;28;20471;-76
2022/01/03 09:30:27;;;;;;;6.03;2.57;;;18.60;62.10;;;;;;5112071;28;20447;-76
2022/01/03 09:32:55;;;;;;;10.93;3.23;;;18.70;62.00;;;;;;5115713;28;20431;-76
2022/01/03 09:35:23;;;;;;;11.83;3.03;;;18.80;62.10;;;;;;5115686;28;20498;-76
2022/01/03 09:37:52;;;;;;;11.47;2.90;;;18.80;62.00;;;;;;5109447;28;20485;-77
2022/01/03 09:40:19;;;;;;;11.80;2.50;;;18.80;61.90;;;;;;5095437;28;20472;-77
2022/01/03 09:42:51;;;;;;;14.10;2.50;;;18.90;61.90;;;;;;5095324;28;20527;-77
2022/01/03 09:45:19;;;;;;;12.23;2.90;;;18.90;61.60;;;;;;5101372;28;20503;-77
2022/01/03 09:47:47;;;;;;;9.17;2.57;;;19.00;61.80;;;;;;5115505;28;20432;-77
2022/01/03 09:50:20;;;;;;;9.57;2.50;;;19.10;62.40;;;;;;5115759;28;20466;-77
2022/01/03 09:52:48;;;;;;;9.70;2.40;;;19.10;61.50;;;;;;5115833;28;20482;-77
2022/01/03 09:55:16;;;;;;;9.73;2.60;;;19.10;61.60;;;;;;5104870;28;20451;-77
2022/01/03 09:57:46;;;;;;;14.63;3.30;;;19.10;61.40;;;;;;5106108;28;20444;-76
2022/01/03 10:00:16;;;;;;;9.80;2.87;;;19.10;61.50;;;;;;5105291;28;20494;-77
2022/01/03 10:02:45;;;;;;;12.50;3.03;;;19.00;61.60;;;;;;5108193;28;20445;-76
2022/01/03 10:05:13;;;;;;;10.87;2.90;;;19.00;61.60;;;;;;5109360;28;20472;-77
2022/01/03 10:07:41;;;;;;;10.40;3.27;;;19.00;61.80;;;;;;5105737;28;20462;-77
2022/01/03 10:10:10;;;;;;;9.20;2.57;;;19.00;61.50;;;;;;5104746;28;20452;-77
2022/01/03 10:12:39;;;;;;;8.80;2.63;;;19.00;61.60;;;;;;5103352;28;20518;-76
2022/01/03 10:15:08;;;;;;;8.63;2.60;;;19.00;61.60;;;;;;5105230;28;20543;-77
2022/01/03 10:17:37;;;;;;;13.43;2.70;;;19.00;61.60;;;;;;5105080;28;20464;-77
2022/01/03 10:20:09;;;;;;;13.53;3.20;;;19.00;61.70;;;;;;5107372;28;20515;-77
2022/01/03 10:22:37;;;;;;;7.23;2.60;;;19.00;61.60;;;;;;5113061;28;20432;-77
2022/01/03 10:25:11;;;;;;;11.70;2.97;;;19.00;61.50;;;;;;5105162;28;20474;-76
2022/01/03 10:27:46;;;;;;;9.80;2.57;;;19.00;61.60;;;;;;5106262;28;20470;-77
2022/01/03 10:30:16;;;;;;;8.60;2.40;;;19.00;61.70;;;;;;5105091;28;20949;-77
2022/01/03 10:32:46;;;;;;;9.97;2.53;;;19.10;61.80;;;;;;5104846;28;20428;-77
2022/01/03 10:35:15;;;;;;;8.67;2.83;;;19.20;61.70;;;;;;5107554;28;20526;-77
2022/01/03 10:37:42;;;;;;;12.53;2.60;;;19.20;61.40;;;;;;5108322;28;20546;-77
2022/01/03 10:40:21;;;;;;;11.50;3.30;;;19.20;61.30;;;;;;5116106;28;20527;-78
2022/01/03 10:42:49;;;;;;;11.10;2.60;;;19.20;61.30;;;;;;5115535;28;20504;-77
2022/01/03 10:45:28;;;;;;;12.80;2.77;;;19.10;61.30;;;;;;5116103;28;20471;-77
2022/01/03 10:47:57;;;;;;;7.40;2.53;;;19.10;61.20;;;;;;5115562;28;20435;-77
2022/01/03 10:50:25;;;;;;;9.87;2.67;;;19.10;61.40;;;;;;5114823;28;20794;-76
2022/01/03 10:52:54;;;;;;;7.60;2.77;;;19.10;61.30;;;;;;5094434;28;20487;-76
2022/01/03 10:55:23;;;;;;;12.23;2.67;;;19.10;61.40;;;;;;5106643;28;20506;-81
2022/01/03 10:57:53;;;;;;;9.73;2.73;;;19.10;61.40;;;;;;5118950;28;20436;-79
2022/01/03 11:00:23;;;;;;;11.33;2.90;;;19.10;61.40;;;;;;5118380;28;20455;-80
2022/01/03 11:03:19;;;;;;;13.93;2.73;;;19.10;61.20;;;;;;5118346;27;20440;-80
2022/01/03 11:05:52;;;;;;;10.17;2.63;;;19.10;61.20;;;;;;5118707;28;20483;-81
2022/01/03 11:11:07;;;;;;;10.70;2.60;;;19.30;60.90;;;;;;5117391;28;20538;-80
2022/01/03 11:13:38;;;;;;;9.20;2.50;;;19.40;60.80;;;;;;5118492;28;20478;-79
2022/01/03 11:16:07;;;;;;;7.97;2.80;;;19.50;60.60;;;;;;5118452;28;20495;-80
2022/01/03 11:18:37;;;;;;;9.90;3.00;;;19.50;60.30;;;;;;5119202;28;20471;-81
2022/01/03 11:21:09;;;;;;;15.03;2.93;;;19.50;60.20;;;;;;5119305;28;20458;-80
2022/01/03 11:23:37;;;;;;;9.20;2.90;;;19.50;60.10;;;;;;5119431;28;20459;-80
2022/01/03 11:26:06;;;;;;;5.63;2.00;;;19.50;60.00;;;;;;5118395;28;20487;-80
2022/01/03 11:28:34;;;;;;;6.40;2.40;;;19.50;60.00;;;;;;5119196;28;20436;-80
2022/01/03 11:31:03;;;;;;;11.30;2.90;;;19.40;59.90;;;;;;5119056;28;20428;-80
2022/01/03 11:33:31;;;;;;;11.93;2.73;;;19.40;60.00;;;;;;5119164;28;20462;-79
2022/01/03 11:36:21;;;;;;;16.03;3.07;;;19.40;60.00;;;;;;5119756;28;20440;-80
2022/01/03 11:38:49;;;;;;;8.83;2.60;;;19.40;59.80;;;;;;5113242;28;20464;-80
2022/01/03 11:41:17;;;;;;;8.90;2.50;;;19.50;60.00;;;;;;5119770;28;20451;-79
2022/01/03 11:43:46;;;;;;;15.60;2.93;;;19.50;59.80;;;;;;5120340;28;20493;-79
2022/01/03 11:46:14;;;;;;;11.20;2.97;;;19.60;59.80;;;;;;5120973;28;20499;-78
2022/01/03 11:48:42;;;;;;;9.47;2.90;;;19.60;59.90;;;;;;5120159;28;20448;-78
2022/01/03 11:51:11;;;;;;;9.03;2.50;;;19.60;59.60;;;;;;5113156;28;20872;-78
2022/01/03 11:53:45;;;;;;;9.87;2.40;;;19.60;59.60;;;;;;5120803;28;20436;-79
2022/01/03 11:56:17;;;;;;;11.40;2.50;;;19.60;59.60;;;;;;5118475;28;20409;-79
2022/01/03 11:58:54;;;;;;;11.77;2.67;;;19.60;59.70;;;;;;5114101;28;20472;-79
2022/01/03 12:04:11;;;;;;;9.40;2.77;;;19.70;59.70;;;;;;5103228;28;20443;-76
2022/01/03 12:06:39;;;;;;;7.07;2.60;;;19.60;59.60;;;;;;5112724;28;20523;-76
2022/01/03 12:09:09;;;;;;;10.43;2.70;;;19.60;59.60;;;;;;5112287;28;20508;-77
2022/01/03 12:11:43;;;;;;;10.43;2.73;;;19.60;59.80;;;;;;5112273;28;20458;-76
2022/01/03 12:14:12;;;;;;;9.93;2.70;;;19.60;59.90;;;;;;5112481;28;20438;-76
2022/01/03 12:16:42;;;;;;;13.53;2.80;;;19.70;60.00;;;;;;5111282;28;20531;-76
2022/01/03 12:19:12;;;;;;;8.70;3.20;;;19.60;59.70;;;;;;5093519;28;20433;-77
2022/01/03 12:21:52;;;;;;;12.80;2.80;;;19.60;59.70;;;;;;5092409;28;20479;-76
2022/01/03 12:24:40;;;;;;;12.60;3.07;;;19.60;59.70;;;;;;5105899;28;20464;-77
2022/01/03 12:27:40;;;;;;;11.60;2.97;;;19.60;59.80;;;;;;5112575;28;20486;-77
2022/01/03 12:30:19;;;;;;;11.47;2.40;;;19.50;59.90;;;;;;5048087;28;20472;-77
2022/01/03 12:33:26;;;;;;;7.67;2.60;;;19.50;60.00;;;;;;5102106;28;20531;-77
2022/01/03 12:36:19;;;;;;;8.00;2.60;;;19.50;60.00;;;;;;5109771;28;21013;-77
2022/01/03 12:39:07;;;;;;;8.43;2.50;;;19.60;60.10;;;;;;5112292;28;20497;-76
2022/01/03 12:41:44;;;;;;;6.90;2.47;;;19.70;59.90;;;;;;5111000;28;20475;-77
2022/01/03 12:44:12;;;;;;;11.27;3.37;;;19.70;59.90;;;;;;5103937;28;20864;-77
2022/01/03 12:46:39;;;;;;;10.93;2.80;;;19.80;60.20;;;;;;5110985;28;20566;-77
2022/01/03 12:49:29;;;;;;;6.90;2.60;;;19.90;60.10;;;;;;5103175;28;20788;-77
2022/01/03 12:52:15;;;;;;;10.73;2.77;;;19.90;59.80;;;;;;5111684;28;20489;-77
2022/01/03 12:54:43;;;;;;;10.73;2.60;;;19.90;59.80;;;;;;5112015;28;20479;-77
2022/01/03 12:57:16;;;;;;;9.43;2.83;;;19.80;59.80;;;;;;5111664;28;20432;-77
2022/01/03 12:59:44;;;;;;;9.63;2.70;;;19.80;59.80;;;;;;5111944;28;20460;-77
2022/01/03 13:02:31;;;;;;;7.73;2.50;;;19.70;59.80;;;;;;5112124;28;20518;-77
2022/01/03 13:05:02;;;;;;;10.80;2.70;;;19.70;60.50;;;;;;5109444;28;20476;-77
2022/01/03 13:07:30;;;;;;;11.80;2.50;;;19.60;60.60;;;;;;5116297;28;20456;-79
2022/01/03 13:09:57;;;;;;;11.67;2.40;;;19.70;60.10;;;;;;5116533;28;20436;-80
2022/01/03 13:12:26;;;;;;;8.60;1.97;;;19.70;59.90;;;;;;5117038;28;20515;-79
2022/01/03 13:15:03;;;;;;;8.13;2.43;;;19.70;60.00;;;;;;5117065;28;20973;-80